createdAt,value
2022-10-06T00:00:13.450Z,495.80
2022-10-06T00:02:40.702Z,454.75
2022-10-06T00:05:07.970Z,495.48
2022-10-06T00:07:35.931Z,532.00
2022-10-06T00:10:03.175Z,365.63
2022-10-06T00:12:30.426Z,337.40
2022-10-06T00:14:57.542Z,334.15
2022-10-06T00:17:24.924Z,317.38
2022-10-06T00:19:51.996Z,382.35
2022-10-06T00:22:19.129Z,457.80
2022-10-06T00:24:46.209Z,487.80
2022-10-06T00:27:13.329Z,409.27
2022-10-06T00:29:42.394Z,393.95
2022-10-06T00:32:10.102Z,436.45
2022-10-06T00:34:37.150Z,395.10
2022-10-06T00:37:04.208Z,385.98
2022-10-06T00:39:31.294Z,438.77
2022-10-06T00:41:59.655Z,482.20
2022-10-06T00:44:26.753Z,536.92
2022-10-06T00:46:54.295Z,516.45
2022-10-06T00:49:28.198Z,544.75
2022-10-06T00:51:57.471Z,575.40
2022-10-06T00:54:24.841Z,539.75
2022-10-06T00:56:51.898Z,559.97
2022-10-06T00:59:19.708Z,483.20
2022-10-06T01:01:53.109Z,531.85
2022-10-06T01:04:21.482Z,564.08
2022-10-06T01:06:53.967Z,453.92
2022-10-06T01:09:22.082Z,587.00
2022-10-06T01:11:50.106Z,604.03
2022-10-06T01:14:19.692Z,417.85
2022-10-06T01:16:48.597Z,432.50
2022-10-06T01:19:26.570Z,485.67
2022-10-06T01:21:54.389Z,564.33
2022-10-06T01:24:21.661Z,585.90
2022-10-06T01:26:50.027Z,611.85
2022-10-06T01:29:17.258Z,514.17
2022-10-06T01:31:44.532Z,617.45
2022-10-06T01:34:11.767Z,642.75
2022-10-06T01:36:40.952Z,580.25
2022-10-06T01:39:08.181Z,520.67
2022-10-06T01:41:35.311Z,438.25
2022-10-06T01:44:02.461Z,469.40
2022-10-06T01:46:30.181Z,486.40
2022-10-06T01:48:57.519Z,456.35
2022-10-06T01:51:24.652Z,510.15
2022-10-06T01:53:51.747Z,586.75
2022-10-06T01:56:20.976Z,612.92
2022-10-06T01:58:48.468Z,499.88
2022-10-06T02:01:15.692Z,581.42
2022-10-06T02:03:42.789Z,698.53
2022-10-06T02:06:10.172Z,634.80
2022-10-06T02:08:37.416Z,695.80
2022-10-06T02:11:09.138Z,721.78
2022-10-06T02:13:37.207Z,664.33
2022-10-06T02:16:06.725Z,679.63
2022-10-06T02:18:34.171Z,651.17
2022-10-06T02:21:01.847Z,618.95
2022-10-06T02:23:29.999Z,640.95
2022-10-06T02:26:01.062Z,645.03
2022-10-06T02:28:28.642Z,582.17
2022-10-06T02:31:00.663Z,479.63
2022-10-06T02:33:27.871Z,557.78
2022-10-06T02:35:56.017Z,559.83
2022-10-06T02:38:23.972Z,633.63
2022-10-06T02:40:51.540Z,627.20
2022-10-06T02:43:18.675Z,637.20
2022-10-06T02:45:53.215Z,478.90
2022-10-06T02:48:20.477Z,516.33
2022-10-06T02:50:53.989Z,525.63
2022-10-06T02:53:21.080Z,430.33
2022-10-06T02:55:48.142Z,377.67
2022-10-06T02:58:15.245Z,358.15
2022-10-06T03:00:42.385Z,392.17
2022-10-06T03:03:09.522Z,419.50
2022-10-06T03:05:36.576Z,382.13
2022-10-06T03:08:03.697Z,410.55
2022-10-06T03:10:30.745Z,433.60
2022-10-06T03:12:57.785Z,391.27
2022-10-06T03:15:24.834Z,379.05
2022-10-06T03:17:52.466Z,405.45
2022-10-06T03:20:19.517Z,302.30
2022-10-06T03:22:46.587Z,318.02
2022-10-06T03:25:13.641Z,354.60
2022-10-06T03:27:41.065Z,367.75
2022-10-06T03:30:08.519Z,345.52
2022-10-06T03:32:35.842Z,365.60
2022-10-06T03:35:03.276Z,316.98
2022-10-06T03:37:30.610Z,342.85
2022-10-06T03:39:57.649Z,359.00
2022-10-06T03:42:24.734Z,379.58
2022-10-06T03:44:51.803Z,401.73
2022-10-06T03:47:19.220Z,358.75
2022-10-06T03:49:46.295Z,374.67
2022-10-06T03:52:13.375Z,232.05
2022-10-06T03:54:40.546Z,275.60
2022-10-06T03:57:07.609Z,302.17
2022-10-06T03:59:34.875Z,313.27
2022-10-06T04:02:02.133Z,348.95
2022-10-06T04:04:29.316Z,285.98
2022-10-06T04:06:56.629Z,365.42
2022-10-06T04:09:23.763Z,298.83
2022-10-06T04:11:51.703Z,293.80
2022-10-06T04:14:18.829Z,285.98
2022-10-06T04:16:47.214Z,259.05
2022-10-06T04:19:14.991Z,266.00
2022-10-06T04:21:43.434Z,225.10
2022-10-06T04:24:11.098Z,157.98
2022-10-06T04:26:40.015Z,156.30
2022-10-06T04:29:07.474Z,158.65
2022-10-06T04:31:37.029Z,144.10
2022-10-06T04:34:04.659Z,135.05
2022-10-06T04:36:36.416Z,154.98
2022-10-06T04:39:04.775Z,164.70
2022-10-06T04:41:35.645Z,171.15
2022-10-06T04:44:03.124Z,188.40
2022-10-06T04:46:42.754Z,188.88
2022-10-06T04:49:13.546Z,207.85
2022-10-06T04:51:45.051Z,244.75
2022-10-06T04:54:12.170Z,235.02
2022-10-06T04:56:39.243Z,248.50
2022-10-06T04:59:06.345Z,232.13
2022-10-06T05:01:35.536Z,270.48
2022-10-06T05:04:03.305Z,357.35
2022-10-06T05:06:31.641Z,291.50
2022-10-06T05:08:59.999Z,367.20
2022-10-06T05:11:27.643Z,369.77
2022-10-06T05:13:55.497Z,382.45
2022-10-06T05:16:23.213Z,376.08
2022-10-06T05:18:51.591Z,353.27
2022-10-06T05:21:24.594Z,319.52
2022-10-06T05:23:51.876Z,271.30
2022-10-06T05:26:20.070Z,280.60
2022-10-06T05:28:47.575Z,263.88
2022-10-06T05:31:16.016Z,278.35
2022-10-06T05:33:43.622Z,288.63
2022-10-06T05:36:30.154Z,254.18
2022-10-06T05:38:57.724Z,228.50
2022-10-06T05:41:26.485Z,142.43
2022-10-06T05:43:53.620Z,156.68
2022-10-06T05:46:23.802Z,151.55
2022-10-06T05:48:52.296Z,155.68
2022-10-06T05:51:20.073Z,168.90
2022-10-06T05:53:48.510Z,154.00
2022-10-06T05:56:17.548Z,195.50
2022-10-06T05:58:45.730Z,212.13
2022-10-06T06:01:14.235Z,182.73
2022-10-06T06:03:42.284Z,222.43
2022-10-06T06:06:16.963Z,182.75
2022-10-06T06:08:44.264Z,235.98
2022-10-06T06:11:11.653Z,155.95
2022-10-06T06:13:39.103Z,179.50
2022-10-06T06:16:08.660Z,242.55
2022-10-06T06:18:37.728Z,291.67
2022-10-06T06:21:06.108Z,292.02
2022-10-06T06:23:37.501Z,324.98
2022-10-06T06:28:32.662Z,366.38
2022-10-06T06:31:12.540Z,129.48
2022-10-06T06:33:42.627Z,200.32
2022-10-06T06:36:18.797Z,231.73
2022-10-06T06:38:51.923Z,252.98
2022-10-06T06:41:22.294Z,252.25
2022-10-06T06:43:50.008Z,257.80
2022-10-06T06:46:18.370Z,158.25
2022-10-06T06:48:46.470Z,134.40
2022-10-06T06:51:14.021Z,156.95
2022-10-06T06:53:41.677Z,84.75
2022-10-06T06:56:09.447Z,59.90
2022-10-06T06:58:36.756Z,98.25
2022-10-06T07:01:14.141Z,103.07
2022-10-06T07:03:58.317Z,106.10
2022-10-06T07:06:29.525Z,93.90
2022-10-06T07:09:00.338Z,105.35
2022-10-06T07:11:29.633Z,92.00
2022-10-06T07:13:58.209Z,43.00
2022-10-06T07:16:44.582Z,99.82
2022-10-06T07:19:47.831Z,103.00
2022-10-06T07:22:35.281Z,85.78
2022-10-06T07:25:11.486Z,88.43
2022-10-06T07:27:43.351Z,122.25
2022-10-06T07:30:12.079Z,105.85
2022-10-06T07:32:39.237Z,97.68
2022-10-06T07:35:07.147Z,8.05
2022-10-06T07:37:37.871Z,6.72
2022-10-06T07:40:09.044Z,3.92
2022-10-06T07:45:35.120Z,6.90
2022-10-06T07:48:02.661Z,10.68
2022-10-06T07:50:29.818Z,9.27
2022-10-06T07:52:57.060Z,146.95
2022-10-06T07:55:24.289Z,129.30
2022-10-06T07:57:51.383Z,117.00
2022-10-06T08:00:22.465Z,109.93
2022-10-06T08:05:16.917Z,102.05
2022-10-06T08:07:44.049Z,152.70
2022-10-06T08:10:11.287Z,145.65
2022-10-06T08:12:40.576Z,120.10
2022-10-06T08:15:08.747Z,93.00
2022-10-06T08:17:36.906Z,148.98
2022-10-06T08:20:08.360Z,92.25
2022-10-06T08:22:36.284Z,138.48
2022-10-06T08:25:06.591Z,128.02
2022-10-06T08:27:35.425Z,60.80
2022-10-06T08:30:03.198Z,78.68
2022-10-06T08:32:30.409Z,73.07
2022-10-06T08:34:58.128Z,63.75
2022-10-06T08:37:26.795Z,93.03
2022-10-06T08:39:54.683Z,71.97
2022-10-06T08:42:27.701Z,54.50
2022-10-06T08:45:02.927Z,82.72
2022-10-06T08:47:34.307Z,97.88
2022-10-06T08:50:01.851Z,66.78
2022-10-06T08:52:37.338Z,49.50
2022-10-06T08:55:04.436Z,124.78
2022-10-06T08:57:54.630Z,58.58
2022-10-06T09:00:22.371Z,103.00
2022-10-06T09:02:50.030Z,73.97
2022-10-06T09:05:19.353Z,81.13
2022-10-06T09:07:48.287Z,130.38
2022-10-06T09:10:26.192Z,84.72
2022-10-06T09:13:01.570Z,65.30
2022-10-06T09:15:40.862Z,75.07
2022-10-06T09:18:34.807Z,65.82
2022-10-06T09:21:16.889Z,62.05
2022-10-06T09:23:48.753Z,50.80
2022-10-06T09:26:17.667Z,48.78
2022-10-06T09:28:47.620Z,44.97
2022-10-06T09:31:21.022Z,12.05
2022-10-06T09:33:48.995Z,56.10
2022-10-06T09:36:16.158Z,55.90
2022-10-06T09:38:53.934Z,96.35
2022-10-06T09:41:23.599Z,68.00
2022-10-06T09:43:58.044Z,96.07
2022-10-06T09:46:25.241Z,37.35
2022-10-06T09:49:07.306Z,39.08
2022-10-06T09:51:36.381Z,129.05
2022-10-06T09:54:16.547Z,52.85
2022-10-06T09:56:45.030Z,122.00
2022-10-06T09:59:22.320Z,92.82
2022-10-06T10:01:55.802Z,44.85
2022-10-06T10:04:26.618Z,40.30
2022-10-06T10:06:54.045Z,84.03
2022-10-06T10:09:26.354Z,46.90
2022-10-06T10:12:22.244Z,71.15
2022-10-06T10:14:49.388Z,136.52
2022-10-06T10:17:19.490Z,57.65
2022-10-06T10:19:52.894Z,36.77
2022-10-06T10:22:24.965Z,43.40
2022-10-06T10:25:08.666Z,39.85
2022-10-06T10:27:58.843Z,34.35
2022-10-06T10:30:28.384Z,37.97
2022-10-06T10:33:11.128Z,31.90
2022-10-06T10:35:41.718Z,46.90
2022-10-06T10:38:20.689Z,40.58
2022-10-06T10:40:55.358Z,91.15
2022-10-06T10:43:22.510Z,77.35
2022-10-06T10:45:52.088Z,113.45
2022-10-06T10:48:22.509Z,57.78
2022-10-06T10:50:52.201Z,43.25
2022-10-06T10:53:40.318Z,42.03
2022-10-06T10:56:11.805Z,29.27
2022-10-06T10:58:43.605Z,32.72
2022-10-06T11:01:19.584Z,21.02
2022-10-06T11:03:56.473Z,32.45
2022-10-06T11:06:26.466Z,75.18
2022-10-06T11:09:00.564Z,83.65
2022-10-06T11:11:27.663Z,61.90
2022-10-06T11:13:58.325Z,49.55
2022-10-06T11:16:41.704Z,118.45
2022-10-06T11:19:35.385Z,125.68
2022-10-06T11:22:22.980Z,149.93
2022-10-06T11:24:52.893Z,134.57
2022-10-06T11:27:20.169Z,69.35
2022-10-06T11:30:05.938Z,29.88
2022-10-06T11:32:46.418Z,48.65
2022-10-06T11:35:18.261Z,47.67
2022-10-06T11:38:05.586Z,4.10
2022-10-06T11:40:51.747Z,24.35
2022-10-06T11:43:34.747Z,52.60
2022-10-06T11:46:04.850Z,2.80
2022-10-06T11:48:32.755Z,3.70
2022-10-06T11:51:18.740Z,19.27
2022-10-06T11:53:46.132Z,15.80
2022-10-06T11:56:16.214Z,24.42
2022-10-06T11:58:52.322Z,11.23
2022-10-06T12:01:31.349Z,4.55
2022-10-06T12:04:06.124Z,14.82
2022-10-06T12:06:48.242Z,15.73
2022-10-06T12:09:24.834Z,11.18
2022-10-06T12:11:52.937Z,19.88
2022-10-06T12:17:36.270Z,26.77
2022-10-06T12:20:26.006Z,37.72
2022-10-06T12:22:55.073Z,63.08
2022-10-06T12:25:28.038Z,50.92
2022-10-06T12:28:13.726Z,122.03
2022-10-06T12:30:44.056Z,132.73
2022-10-06T12:33:18.449Z,142.00
2022-10-06T12:35:46.133Z,156.77
2022-10-06T12:38:31.471Z,151.32
2022-10-06T12:40:59.494Z,135.90
2022-10-06T12:43:28.177Z,152.73
2022-10-06T12:45:55.323Z,165.38
2022-10-06T12:48:38.078Z,117.22
2022-10-06T12:51:25.519Z,88.43
2022-10-06T12:53:52.621Z,187.00
2022-10-06T12:56:31.698Z,187.20
2022-10-06T12:58:59.115Z,207.88
2022-10-06T13:01:27.869Z,44.60
2022-10-06T13:03:55.435Z,76.85
2022-10-06T13:06:23.903Z,74.68
2022-10-06T13:09:03.344Z,82.22
2022-10-06T13:11:30.726Z,8.55
2022-10-06T13:13:59.198Z,45.63
2022-10-06T13:16:31.566Z,5.38
2022-10-06T13:19:01.177Z,3.40
2022-10-06T13:21:30.287Z,6.90
2022-10-06T13:23:57.534Z,3.13
2022-10-06T13:26:30.111Z,3.67
2022-10-06T13:28:57.931Z,5.00
2022-10-06T13:31:31.332Z,5.32
2022-10-06T13:34:06.560Z,4.88
2022-10-06T13:36:35.390Z,4.05
2022-10-06T13:39:06.162Z,6.30
2022-10-06T13:41:37.049Z,5.65
2022-10-06T13:44:27.252Z,5.20
2022-10-06T13:46:56.279Z,5.18
2022-10-06T13:49:28.573Z,3.70
2022-10-06T13:51:57.155Z,7.40
2022-10-06T13:54:38.644Z,4.63
2022-10-06T13:57:05.765Z,7.18
2022-10-06T13:59:34.321Z,6.30
2022-10-06T14:02:15.379Z,6.43
2022-10-06T14:04:42.626Z,5.63
2022-10-06T14:07:12.923Z,9.07
2022-10-06T14:09:40.971Z,11.67
2022-10-06T14:12:15.490Z,5.40
2022-10-06T14:14:49.657Z,6.18
2022-10-06T14:17:23.839Z,15.48
2022-10-06T14:19:51.368Z,5.38
2022-10-06T14:22:40.230Z,8.05
2022-10-06T14:25:15.191Z,7.57
2022-10-06T14:27:42.274Z,7.47
2022-10-06T14:30:09.755Z,4.10
2022-10-06T14:32:38.848Z,6.78
2022-10-06T14:35:07.186Z,9.05
2022-10-06T14:37:34.695Z,6.38
2022-10-06T14:40:02.237Z,6.38
2022-10-06T14:42:29.734Z,6.10
2022-10-06T14:44:57.887Z,7.18
2022-10-06T14:47:25.673Z,6.45
2022-10-06T14:49:53.014Z,7.85
2022-10-06T14:52:21.448Z,5.80
2022-10-06T14:54:48.810Z,8.57
2022-10-06T14:57:16.004Z,9.13
2022-10-06T14:59:43.157Z,6.20
2022-10-06T15:02:11.573Z,7.10
2022-10-06T15:04:38.611Z,7.20
2022-10-06T15:07:24.476Z,5.85
2022-10-06T15:09:51.615Z,5.03
2022-10-06T15:12:18.689Z,7.15
2022-10-06T15:14:45.894Z,6.70
2022-10-06T15:17:13.049Z,5.13
2022-10-06T15:19:40.366Z,7.88
2022-10-06T15:22:08.976Z,8.13
2022-10-06T15:24:36.192Z,10.57
2022-10-06T15:27:24.845Z,6.78
2022-10-06T15:29:52.512Z,6.88
2022-10-06T15:32:19.635Z,6.50
2022-10-06T15:34:46.756Z,8.20
2022-10-06T15:37:13.903Z,7.82
2022-10-06T15:39:41.031Z,5.88
2022-10-06T15:42:08.727Z,6.03
2022-10-06T15:44:36.002Z,14.30
2022-10-06T15:47:04.683Z,8.60
2022-10-06T15:49:33.052Z,7.35
2022-10-06T15:52:02.818Z,9.73
2022-10-06T15:54:33.644Z,6.80
2022-10-06T15:57:02.387Z,6.53
2022-10-06T15:59:31.732Z,9.35
2022-10-06T16:02:04.496Z,10.82
2022-10-06T16:04:53.101Z,13.30
2022-10-06T16:07:20.611Z,9.32
2022-10-06T16:09:49.068Z,9.23
2022-10-06T16:12:18.241Z,12.48
2022-10-06T16:14:45.980Z,10.13
2022-10-06T16:17:13.606Z,7.95
2022-10-06T16:19:40.964Z,9.68
2022-10-06T16:22:09.217Z,8.05
2022-10-06T16:24:36.342Z,8.40
2022-10-06T16:27:03.646Z,8.68
2022-10-06T16:29:31.165Z,11.80
2022-10-06T16:31:59.302Z,7.20
2022-10-06T16:34:26.562Z,4.45
2022-10-06T16:36:53.832Z,6.95
2022-10-06T16:39:22.335Z,6.22
2022-10-06T16:41:50.156Z,8.00
2022-10-06T16:44:17.710Z,5.10
2022-10-06T16:46:45.373Z,5.10
2022-10-06T16:49:12.744Z,5.00
2022-10-06T16:51:41.370Z,16.20
2022-10-06T16:54:12.656Z,4.68
2022-10-06T16:56:41.589Z,8.48
2022-10-06T16:59:12.970Z,5.22
2022-10-06T17:04:17.963Z,9.32
2022-10-06T17:06:49.995Z,10.27
2022-10-06T17:09:18.912Z,7.40
2022-10-06T17:11:47.596Z,10.95
2022-10-06T17:14:14.787Z,10.93
2022-10-06T17:16:42.913Z,7.45
2022-10-06T17:19:11.349Z,9.23
2022-10-06T17:21:48.150Z,7.63
2022-10-06T17:24:20.009Z,9.88
2022-10-06T17:26:48.867Z,13.65
2022-10-06T17:29:21.323Z,10.32
2022-10-06T17:31:49.565Z,28.73
2022-10-06T17:34:20.669Z,16.65
2022-10-06T17:36:50.661Z,8.88
2022-10-06T17:39:18.666Z,10.70
2022-10-06T17:41:46.598Z,8.93
2022-10-06T17:44:21.246Z,8.15
2022-10-06T17:46:50.642Z,7.80
2022-10-06T17:49:20.547Z,7.05
2022-10-06T17:51:48.022Z,9.23
2022-10-06T17:54:18.041Z,9.85
2022-10-06T17:56:46.018Z,10.00
2022-10-06T17:59:17.405Z,7.97
2022-10-06T18:04:15.440Z,9.68
2022-10-06T18:06:43.261Z,19.23
2022-10-06T18:09:10.514Z,9.55
2022-10-06T18:11:47.911Z,9.15
2022-10-06T18:14:16.375Z,8.80
2022-10-06T18:16:45.281Z,8.85
2022-10-06T18:19:16.463Z,8.77
2022-10-06T18:21:44.594Z,16.92
2022-10-06T18:24:16.497Z,12.43
2022-10-06T18:26:44.135Z,27.92
2022-10-06T18:29:11.699Z,39.25
2022-10-06T18:31:39.385Z,28.55
2022-10-06T18:36:53.980Z,56.00
2022-10-06T18:39:21.181Z,47.60
2022-10-06T18:41:51.010Z,33.90
2022-10-06T18:44:38.213Z,27.85
2022-10-06T18:47:24.019Z,44.05
2022-10-06T18:49:52.909Z,43.80
2022-10-06T18:52:21.676Z,33.50
2022-10-06T18:54:49.155Z,33.33
2022-10-06T18:57:16.506Z,25.05
2022-10-06T18:59:44.371Z,44.38
2022-10-06T19:02:12.021Z,46.55
2022-10-06T19:04:39.419Z,27.15
2022-10-06T19:07:06.722Z,114.97
2022-10-06T19:09:33.919Z,159.82
2022-10-06T19:12:01.906Z,227.02
2022-10-06T19:14:31.769Z,221.75
2022-10-06T19:16:59.254Z,211.57
2022-10-06T19:19:27.870Z,170.75
2022-10-06T19:21:59.487Z,178.52
2022-10-06T19:24:27.973Z,217.32
2022-10-06T19:26:56.430Z,260.42
2022-10-06T19:29:26.646Z,337.30
2022-10-06T19:31:55.461Z,362.17
2022-10-06T19:34:23.140Z,393.52
2022-10-06T19:36:52.702Z,178.75
2022-10-06T19:39:21.771Z,116.65
2022-10-06T19:42:07.550Z,55.40
2022-10-06T19:44:37.271Z,35.30
2022-10-06T19:47:07.105Z,20.15
2022-10-06T19:49:34.750Z,16.63
2022-10-06T19:52:03.117Z,16.73
2022-10-06T19:54:30.751Z,12.55
2022-10-06T19:57:00.806Z,13.02
2022-10-06T19:59:30.315Z,14.63
2022-10-06T20:01:57.527Z,12.70
2022-10-06T20:04:25.114Z,22.00
2022-10-06T20:06:52.800Z,11.80
2022-10-06T20:09:21.516Z,10.32
2022-10-06T20:11:50.217Z,13.70
2022-10-06T20:14:20.972Z,12.85
2022-10-06T20:16:50.672Z,10.95
2022-10-06T20:19:18.806Z,11.40
2022-10-06T20:21:46.630Z,18.45
2022-10-06T20:24:15.198Z,24.17
2022-10-06T20:26:43.173Z,15.23
2022-10-06T20:29:11.632Z,21.17
2022-10-06T20:31:40.241Z,12.45
2022-10-06T20:34:08.305Z,13.18
2022-10-06T20:36:36.242Z,25.60
2022-10-06T20:39:22.231Z,21.95
2022-10-06T20:41:49.338Z,11.07
2022-10-06T20:44:16.415Z,17.35
2022-10-06T20:46:43.886Z,20.05
2022-10-06T20:49:13.932Z,20.55
2022-10-06T20:51:46.579Z,25.20
2022-10-06T20:54:16.231Z,18.48
2022-10-06T20:56:43.829Z,26.15
2022-10-06T20:59:11.656Z,42.83
2022-10-06T21:01:42.566Z,30.23
2022-10-06T21:04:10.039Z,151.68
2022-10-06T21:06:40.773Z,93.22
2022-10-06T21:09:09.054Z,16.33
2022-10-06T21:11:36.220Z,33.33
2022-10-06T21:14:03.653Z,264.20
2022-10-06T21:16:32.899Z,38.92
2022-10-06T21:19:02.319Z,12.93
2022-10-06T21:21:29.464Z,12.35
2022-10-06T21:23:56.600Z,13.90
2022-10-06T21:26:25.953Z,16.55
2022-10-06T21:28:53.405Z,12.82
2022-10-06T21:31:27.580Z,14.25
2022-10-06T21:33:55.259Z,11.15
2022-10-06T21:36:23.275Z,15.57
2022-10-06T21:38:51.389Z,93.90
2022-10-06T21:41:38.383Z,63.28
2022-10-06T21:44:06.675Z,38.53
2022-10-06T21:46:37.780Z,39.65
2022-10-06T21:49:06.475Z,120.90
2022-10-06T21:51:33.838Z,53.20
2022-10-06T21:54:01.417Z,53.25
2022-10-06T21:56:30.079Z,22.92
2022-10-06T21:58:57.412Z,14.02
2022-10-06T22:01:28.883Z,17.05
2022-10-06T22:06:23.187Z,23.77
2022-10-06T22:08:50.588Z,16.35
2022-10-06T22:11:19.525Z,14.02
2022-10-06T22:13:48.109Z,8.80
2022-10-06T22:16:16.829Z,13.40
2022-10-06T22:18:43.994Z,16.85
2022-10-06T22:21:18.464Z,14.18
2022-10-06T22:23:46.431Z,14.32
2022-10-06T22:26:14.453Z,17.40
2022-10-06T22:28:45.644Z,19.15
2022-10-06T22:31:12.930Z,17.45
2022-10-06T22:33:40.663Z,16.20
2022-10-06T22:36:08.605Z,19.52
2022-10-06T22:38:35.784Z,24.00
2022-10-06T22:41:04.155Z,16.33
2022-10-06T22:43:31.353Z,18.58
2022-10-06T22:45:58.556Z,13.15
2022-10-06T22:48:25.786Z,16.45
2022-10-06T22:50:53.316Z,13.15
2022-10-06T22:53:21.240Z,62.20
2022-10-06T22:55:48.755Z,11.15
2022-10-06T22:58:16.576Z,13.77
2022-10-06T23:00:44.406Z,13.20
2022-10-06T23:03:11.885Z,9.32
2022-10-06T23:05:39.606Z,12.43
2022-10-06T23:08:07.395Z,21.17
2022-10-06T23:10:35.314Z,13.52
2022-10-06T23:13:02.955Z,15.23
2022-10-06T23:15:30.379Z,11.10
2022-10-06T23:17:57.567Z,13.25
2022-10-06T23:20:24.728Z,13.80
2022-10-06T23:22:51.944Z,11.93
2022-10-06T23:25:21.610Z,8.55
2022-10-06T23:27:50.913Z,11.63
2022-10-06T23:30:18.113Z,12.48
2022-10-06T23:32:45.225Z,12.68
2022-10-06T23:35:12.452Z,17.63
2022-10-06T23:37:39.733Z,11.75
2022-10-06T23:40:07.253Z,14.75
2022-10-06T23:42:34.493Z,15.23
2022-10-06T23:45:01.690Z,11.32
2022-10-06T23:47:28.810Z,9.95
2022-10-06T23:49:55.936Z,16.17
2022-10-06T23:52:23.104Z,17.45
2022-10-06T23:54:50.287Z,14.00
2022-10-06T23:57:17.454Z,9.70
2022-10-06T23:59:44.611Z,11.77
